Time,TemperatureF,DewpointF,PressureIn,WindDirection,WindDirectionDegrees,WindSpeedMPH,WindSpeedGustMPH,Humidity,HourlyPrecipIn,Conditions,Clouds,dailyrainin,SoftwareType,DateUTC
2013-03-28 00:02:00,52.0,48.0,30.00,North,-999,0.0,0.0,86,0.00,,,-99.99,,2013-03-28 07:02:00,
2013-03-28 00:12:00,52.0,48.0,30.00,North,-999,0.0,0.0,86,0.00,,,-99.99,,2013-03-28 07:12:00,
2013-03-28 00:22:00,52.0,48.0,30.00,North,-999,0.0,0.0,86,0.00,,,-99.99,,2013-03-28 07:22:00,
2013-03-28 00:32:00,52.0,48.0,30.00,North,-999,0.0,0.0,85,0.00,,,-99.99,,2013-03-28 07:32:00,
2013-03-28 00:42:00,52.0,48.0,30.00,North,-999,0.0,0.0,85,0.00,,,-99.99,,2013-03-28 07:42:00,
2013-03-28 00:52:00,52.0,48.0,30.00,North,-999,0.0,0.0,85,0.00,,,-99.99,,2013-03-28 07:52:00,
2013-03-28 01:02:00,52.0,47.0,30.00,North,-999,0.0,0.0,84,0.00,,,-99.99,,2013-03-28 08:02:00,
2013-03-28 01:11:00,52.0,47.0,30.00,North,-999,0.0,0.0,84,0.00,,,-99.99,,2013-03-28 08:11:00,
2013-03-28 01:21:00,52.0,47.0,30.00,North,-999,0.0,0.0,84,0.00,,,-99.99,,2013-03-28 08:21:00,
2013-03-28 01:32:00,51.0,47.0,30.00,North,-999,0.0,0.0,85,0.00,,,-99.99,,2013-03-28 08:32:00,
2013-03-28 01:42:00,51.0,47.0,30.00,North,-999,0.0,0.0,85,0.00,,,-99.99,,2013-03-28 08:42:00,
2013-03-28 01:52:00,51.0,47.0,30.00,North,-999,0.0,0.0,85,0.00,,,-99.99,,2013-03-28 08:52:00,
2013-03-28 02:01:00,51.0,47.0,30.00,North,-999,0.0,0.0,85,0.00,,,-99.99,,2013-03-28 09:01:00,
2013-03-28 02:33:00,50.0,47.0,30.00,North,-999,0.0,0.0,88,0.00,,,-99.99,,2013-03-28 09:33:00,
2013-03-28 02:42:00,50.0,47.0,30.00,North,-999,0.0,0.0,88,0.00,,,-99.99,,2013-03-28 09:42:00,
2013-03-28 02:52:00,50.0,47.0,30.00,North,-999,0.0,0.0,88,0.00,,,-99.99,,2013-03-28 09:52:00,
2013-03-28 03:02:00,50.0,47.0,30.00,North,-999,0.0,0.0,89,0.00,,,-99.99,,2013-03-28 10:02:00,
2013-03-28 03:12:00,50.0,47.0,30.00,North,-999,0.0,0.0,89,0.00,,,-99.99,,2013-03-28 10:12:00,
2013-03-28 03:22:00,50.0,47.0,30.00,North,-999,0.0,0.0,89,0.00,,,-99.99,,2013-03-28 10:22:00,
2013-03-28 03:32:00,50.0,47.0,29.99,North,-999,0.0,0.0,88,0.00,,,-99.99,,2013-03-28 10:32:00,
2013-03-28 03:43:00,50.0,47.0,29.99,North,-999,0.0,0.0,88,0.00,,,-99.99,,2013-03-28 10:43:00,
2013-03-28 03:53:00,50.0,47.0,29.99,North,-999,0.0,0.0,88,0.00,,,-99.99,,2013-03-28 10:53:00,
2013-03-28 04:02:00,50.0,47.0,29.98,North,0,0.0,1.0,89,0.00,,,-99.99,,2013-03-28 11:02:00,
2013-03-28 04:12:00,50.0,47.0,29.98,North,0,0.0,1.0,89,0.00,,,-99.99,,2013-03-28 11:12:00,
2013-03-28 04:22:00,50.0,47.0,29.98,North,0,0.0,1.0,89,0.00,,,-99.99,,2013-03-28 11:22:00,
2013-03-28 04:32:00,49.0,46.0,29.98,North,-999,0.0,0.0,90,0.00,,,-99.99,,2013-03-28 11:32:00,
2013-03-28 04:43:00,49.0,46.0,29.98,North,-999,0.0,0.0,90,0.00,,,-99.99,,2013-03-28 11:43:00,
2013-03-28 04:52:00,49.0,46.0,29.98,North,-999,0.0,0.0,90,0.00,,,-99.99,,2013-03-28 11:52:00,
2013-03-28 05:02:00,49.0,46.0,29.98,North,-999,0.0,0.0,91,0.00,,,-99.99,,2013-03-28 12:02:00,
2013-03-28 05:12:00,49.0,46.0,29.98,North,-999,0.0,0.0,91,0.00,,,-99.99,,2013-03-28 12:12:00,
2013-03-28 05:22:00,49.0,46.0,29.98,North,-999,0.0,0.0,91,0.00,,,-99.99,,2013-03-28 12:22:00,
2013-03-28 05:31:00,50.0,47.0,29.97,North,-999,0.0,0.0,90,0.00,,,-99.99,,2013-03-28 12:31:00,
2013-03-28 05:32:00,49.0,47.0,29.98,North,-999,0.0,0.0,93,0.00,,,-99.99,,2013-03-28 12:32:00,
2013-03-28 05:42:00,49.0,47.0,29.98,North,-999,0.0,0.0,93,0.00,,,-99.99,,2013-03-28 12:42:00,
2013-03-28 05:52:00,49.0,47.0,29.98,North,-999,0.0,0.0,93,0.00,,,-99.99,,2013-03-28 12:52:00,
2013-03-28 06:02:00,50.0,47.0,29.97,North,-999,0.0,0.0,90,0.00,,,-99.99,,2013-03-28 13:02:00,
2013-03-28 06:12:00,50.0,47.0,29.97,North,-999,0.0,0.0,90,0.00,,,-99.99,,2013-03-28 13:12:00,
2013-03-28 06:22:00,50.0,47.0,29.97,North,-999,0.0,0.0,90,0.00,,,-99.99,,2013-03-28 13:22:00,
2013-03-28 06:31:00,50.0,47.0,29.99,North,0,0.0,1.0,90,0.00,,,-99.99,,2013-03-28 13:31:00,
2013-03-28 06:42:00,49.0,47.0,29.97,North,-999,0.0,0.0,92,0.00,,,-99.99,,2013-03-28 13:42:00,
2013-03-28 06:52:00,49.0,47.0,29.97,North,-999,0.0,0.0,92,0.00,,,-99.99,,2013-03-28 13:52:00,
2013-03-28 07:02:00,50.0,47.0,29.99,North,0,0.0,1.0,90,0.00,,,-99.99,,2013-03-28 14:02:00,
2013-03-28 07:12:00,50.0,47.0,29.99,North,0,0.0,1.0,90,0.00,,,-99.99,,2013-03-28 14:12:00,
2013-03-28 07:22:00,50.0,47.0,29.99,North,0,0.0,1.0,90,0.00,,,-99.99,,2013-03-28 14:22:00,
2013-03-28 08:02:00,50.0,47.0,30.02,North,-999,0.0,0.0,89,0.00,,,-99.99,,2013-03-28 15:02:00,
2013-03-28 08:12:00,50.0,47.0,30.02,North,-999,0.0,0.0,89,0.00,,,-99.99,,2013-03-28 15:12:00,
2013-03-28 08:21:00,50.0,47.0,30.02,North,-999,0.0,0.0,89,0.00,,,-99.99,,2013-03-28 15:21:00,
2013-03-28 08:31:00,52.0,48.0,30.03,North,-999,0.0,0.0,85,0.00,,,-99.99,,2013-03-28 15:31:00,
2013-03-28 08:32:00,51.0,48.0,30.02,NE,50,2.0,3.0,88,0.00,,,-99.99,,2013-03-28 15:32:00,
2013-03-28 08:43:00,51.0,48.0,30.02,NE,50,2.0,3.0,88,0.00,,,-99.99,,2013-03-28 15:43:00,
2013-03-28 08:53:00,51.0,48.0,30.02,NE,50,2.0,3.0,88,0.00,,,-99.99,,2013-03-28 15:53:00,
2013-03-28 09:02:00,52.0,48.0,30.03,North,-999,0.0,0.0,85,0.00,,,-99.99,,2013-03-28 16:02:00,
2013-03-28 09:12:00,52.0,48.0,30.03,North,-999,0.0,0.0,85,0.00,,,-99.99,,2013-03-28 16:12:00,
2013-03-28 09:23:00,52.0,48.0,30.03,North,-999,0.0,0.0,85,0.00,,,-99.99,,2013-03-28 16:23:00,
2013-03-28 11:52:00,59.0,50.0,30.06,North,0,0.0,1.0,73,0.00,,,-99.99,,2013-03-28 18:52:00,
2013-03-28 12:02:00,60.0,51.0,30.06,North,0,0.0,1.0,73,0.00,,,-99.99,,2013-03-28 19:02:00,
2013-03-28 12:12:00,60.0,51.0,30.06,North,0,0.0,1.0,73,0.00,,,-99.99,,2013-03-28 19:12:00,
2013-03-28 12:22:00,60.0,51.0,30.06,North,0,0.0,1.0,73,0.00,,,-99.99,,2013-03-28 19:22:00,
2013-03-28 12:32:00,60.0,52.0,30.04,North,0,0.0,3.0,74,0.00,,,-99.99,,2013-03-28 19:32:00,
2013-03-28 12:42:00,60.0,52.0,30.04,North,0,0.0,3.0,74,0.00,,,-99.99,,2013-03-28 19:42:00,
2013-03-28 12:52:00,60.0,52.0,30.04,North,0,0.0,3.0,74,0.00,,,-99.99,,2013-03-28 19:52:00,
2013-03-28 13:33:00,63.0,51.0,30.03,North,0,0.0,3.0,66,0.00,,,-99.99,,2013-03-28 20:33:00,
2013-03-28 13:42:00,63.0,51.0,30.03,North,0,0.0,3.0,66,0.00,,,-99.99,,2013-03-28 20:42:00,
2013-03-28 13:53:00,63.0,51.0,30.03,North,0,0.0,3.0,66,0.00,,,-99.99,,2013-03-28 20:53:00,
2013-03-28 14:02:00,64.0,52.0,30.03,SW,230,5.0,7.0,66,0.00,,,-99.99,,2013-03-28 21:02:00,
2013-03-28 14:12:00,64.0,52.0,30.03,SW,230,5.0,7.0,66,0.00,,,-99.99,,2013-03-28 21:12:00,
2013-03-28 14:22:00,64.0,52.0,30.03,SW,230,5.0,7.0,66,0.00,,,-99.99,,2013-03-28 21:22:00,
2013-03-28 14:32:00,65.0,53.0,30.02,North,0,0.0,1.0,66,0.00,,,-99.99,,2013-03-28 21:32:00,
2013-03-28 14:43:00,65.0,53.0,30.02,North,0,0.0,1.0,66,0.00,,,-99.99,,2013-03-28 21:43:00,
2013-03-28 14:53:00,65.0,53.0,30.02,North,0,0.0,1.0,66,0.00,,,-99.99,,2013-03-28 21:53:00,
2013-03-28 15:02:00,66.0,54.0,30.01,North,0,0.0,2.0,65,0.00,,,-99.99,,2013-03-28 22:02:00,
2013-03-28 15:12:00,66.0,54.0,30.01,North,0,0.0,2.0,65,0.00,,,-99.99,,2013-03-28 22:12:00,
2013-03-28 15:22:00,66.0,54.0,30.01,North,0,0.0,2.0,65,0.00,,,-99.99,,2013-03-28 22:22:00,
2013-03-28 15:32:00,66.0,52.0,30.01,North,0,0.0,3.0,60,0.00,,,-99.99,,2013-03-28 22:32:00,
2013-03-28 15:42:00,66.0,52.0,30.01,North,0,0.0,3.0,60,0.00,,,-99.99,,2013-03-28 22:42:00,
2013-03-28 15:52:00,66.0,52.0,30.01,North,0,0.0,3.0,60,0.00,,,-99.99,,2013-03-28 22:52:00,
2013-03-28 16:31:00,60.0,51.0,29.99,WSW,240,3.0,4.0,71,0.00,,,-99.99,,2013-03-28 23:31:00,
2013-03-28 17:02:00,60.0,51.0,29.99,WSW,240,3.0,4.0,71,0.00,,,-99.99,,2013-03-29 00:02:00,
2013-03-28 17:12:00,60.0,51.0,29.99,WSW,240,3.0,4.0,71,0.00,,,-99.99,,2013-03-29 00:12:00,
2013-03-28 17:22:00,60.0,51.0,29.99,WSW,240,3.0,4.0,71,0.00,,,-99.99,,2013-03-29 00:22:00,
2013-03-28 18:02:00,60.0,50.0,29.99,North,-999,0.0,0.0,70,0.00,,,-99.99,,2013-03-29 01:02:00,
2013-03-28 18:12:00,60.0,50.0,29.99,North,-999,0.0,0.0,70,0.00,,,-99.99,,2013-03-29 01:12:00,
2013-03-28 18:22:00,60.0,50.0,29.99,North,-999,0.0,0.0,70,0.00,,,-99.99,,2013-03-29 01:22:00,
2013-03-28 18:31:00,57.0,50.0,29.98,West,270,2.0,3.0,76,0.00,,,-99.99,,2013-03-29 01:31:00,
2013-03-28 18:42:00,57.0,50.0,29.98,West,270,2.0,3.0,76,0.00,,,-99.99,,2013-03-29 01:42:00,
2013-03-28 18:52:00,57.0,50.0,29.98,West,270,2.0,3.0,76,0.00,,,-99.99,,2013-03-29 01:52:00,
2013-03-28 19:32:00,59.0,50.0,29.99,West,280,3.0,3.0,71,0.00,,,-99.99,,2013-03-29 02:32:00,
2013-03-28 19:42:00,59.0,50.0,29.99,West,280,3.0,3.0,71,0.00,,,-99.99,,2013-03-29 02:42:00,
2013-03-28 19:52:00,59.0,50.0,29.99,West,280,3.0,3.0,71,0.00,,,-99.99,,2013-03-29 02:52:00,
2013-03-28 20:02:00,57.0,49.0,29.99,West,270,1.0,2.0,75,0.00,,,-99.99,,2013-03-29 03:02:00,
2013-03-28 20:12:00,57.0,49.0,29.99,West,270,1.0,2.0,75,0.00,,,-99.99,,2013-03-29 03:12:00,
2013-03-28 20:21:00,57.0,49.0,29.99,West,270,1.0,2.0,75,0.00,,,-99.99,,2013-03-29 03:21:00,
2013-03-28 20:32:00,57.0,49.0,29.99,West,270,1.0,2.0,75,0.00,,,-99.99,,2013-03-29 03:32:00,
2013-03-28 21:02:00,60.0,47.0,30.00,North,0,0.0,3.0,61,0.00,,,-99.99,,2013-03-29 04:02:00,
2013-03-28 21:12:00,60.0,47.0,30.00,North,0,0.0,3.0,61,0.00,,,-99.99,,2013-03-29 04:12:00,
2013-03-28 21:22:00,60.0,47.0,30.00,North,0,0.0,3.0,61,0.00,,,-99.99,,2013-03-29 04:22:00,
2013-03-28 21:33:00,58.0,49.0,30.02,West,260,2.0,3.0,72,0.00,,,-99.99,,2013-03-29 04:33:00,
2013-03-28 21:43:00,58.0,49.0,30.02,West,260,2.0,3.0,72,0.00,,,-99.99,,2013-03-29 04:43:00,
2013-03-28 21:52:00,58.0,49.0,30.02,West,260,2.0,3.0,72,0.00,,,-99.99,,2013-03-29 04:52:00,
2013-03-28 22:02:00,59.0,48.0,30.02,West,270,3.0,5.0,67,0.00,,,-99.99,,2013-03-29 05:02:00,
2013-03-28 22:12:00,59.0,46.0,30.02,West,280,4.0,6.0,63,0.00,,,-99.99,,2013-03-29 05:12:00,
2013-03-28 22:22:00,59.0,46.0,30.02,West,280,4.0,6.0,63,0.00,,,-99.99,,2013-03-29 05:22:00,
2013-03-28 22:32:00,60.0,46.0,30.02,West,280,3.0,5.0,59,0.00,,,-99.99,,2013-03-29 05:32:00,
2013-03-28 23:02:00,60.0,46.0,30.03,North,0,0.0,3.0,59,0.00,,,-99.99,,2013-03-29 06:02:00,